Terminal Aerodrome Forecast
Issued by NWS

Home | Current Version | Previous Version | Text Only | Print | Product List | Glossary On
Versions: 1 2 3 4 5 6 7 8 9 10 11 12 13 14 15
317
FTUS42 KMLB 171738
TAFSFB
TAF
KSFB 171738Z 1718/1818 30012KT P6SM SKC
      TEMPO 1720/1721 BKN015
     FM172100 30011KT P6SM SCT015 BKN035
     FM180000 31012KT P6SM SKC
     FM181200 34008KT P6SM SKC=

USA.gov is the U.S. government's official web portal to all federal, state and local government web resources and services.